Time;durP1;ratioP1;P1;durP2;ratioP2;P2;SDS_P1;SDS_P2;PMS_P1;PMS_P2;Temp;Humidity;BMP_temperature;BMP_pressure;BME280_temperature;BME280_humidity;BME280_pressure;Samples;Min_cycle;Max_cycle;Signal;HPM_P1;HPM_P2
2023/08/29 00:00:03;;;;;;;6.20;3.92;;;13.40;99.90;;;;;;5093360;27;20050;-57
2023/08/29 00:02:31;;;;;;;6.45;4.35;;;13.40;99.90;;;;;;5079430;27;20050;-55
2023/08/29 00:04:59;;;;;;;5.78;3.80;;;13.40;99.90;;;;;;5095487;27;20047;-54
2023/08/29 00:07:24;;;;;;;4.68;3.50;;;13.30;99.90;;;;;;5093209;27;20055;-57
2023/08/29 00:09:52;;;;;;;5.00;3.30;;;13.30;99.90;;;;;;5095747;27;20043;-56
2023/08/29 00:12:18;;;;;;;4.07;3.60;;;13.30;99.90;;;;;;5094789;27;20075;-57
2023/08/29 00:14:44;;;;;;;5.65;3.97;;;13.30;99.90;;;;;;5094361;28;20044;-56
2023/08/29 00:17:10;;;;;;;4.40;3.97;;;13.30;99.90;;;;;;5095152;27;20043;-56
2023/08/29 00:19:35;;;;;;;4.25;3.38;;;13.30;99.90;;;;;;5082224;28;20071;-55
2023/08/29 00:22:01;;;;;;;4.40;3.15;;;13.20;99.90;;;;;;5078798;28;20561;-56
2023/08/29 00:24:27;;;;;;;4.43;2.60;;;13.20;99.90;;;;;;5096461;27;20558;-55
2023/08/29 00:26:53;;;;;;;3.95;2.90;;;13.20;99.90;;;;;;5097553;28;20071;-56
2023/08/29 00:29:19;;;;;;;6.68;3.00;;;13.20;99.90;;;;;;5100365;27;20071;-57
2023/08/29 00:31:45;;;;;;;5.30;3.08;;;13.10;99.90;;;;;;5098860;27;20044;-56
2023/08/29 00:34:10;;;;;;;3.20;2.67;;;13.10;99.90;;;;;;5085986;28;20036;-57
2023/08/29 00:36:36;;;;;;;4.35;3.22;;;13.10;99.90;;;;;;5095885;27;20577;-57
2023/08/29 00:39:03;;;;;;;3.78;3.10;;;13.10;99.90;;;;;;5096368;27;20039;-54
2023/08/29 00:41:30;;;;;;;5.32;3.08;;;13.10;99.90;;;;;;5087198;27;20056;-54
2023/08/29 00:43:56;;;;;;;3.75;2.72;;;13.10;99.90;;;;;;5096558;27;20050;-56
2023/08/29 00:46:23;;;;;;;4.32;3.08;;;13.10;99.90;;;;;;5093588;27;20122;-54
2023/08/29 00:48:50;;;;;;;3.63;3.25;;;13.00;99.90;;;;;;5099174;27;20036;-56
2023/08/29 00:51:17;;;;;;;3.38;3.08;;;13.00;99.90;;;;;;5095370;27;20060;-58
2023/08/29 00:53:43;;;;;;;3.97;2.92;;;13.00;99.90;;;;;;5095477;28;20052;-56
2023/08/29 00:56:12;;;;;;;3.92;2.90;;;13.00;99.90;;;;;;5095652;28;20069;-56
2023/08/29 00:58:38;;;;;;;3.50;2.65;;;12.90;99.90;;;;;;5097743;27;20040;-55
2023/08/29 01:01:04;;;;;;;4.55;2.72;;;12.90;99.90;;;;;;5080664;27;20201;-54
2023/08/29 01:03:30;;;;;;;4.00;2.72;;;12.90;99.90;;;;;;5097020;28;20103;-56
2023/08/29 01:05:56;;;;;;;3.88;2.88;;;12.90;99.90;;;;;;5093448;27;20054;-56
2023/08/29 01:08:22;;;;;;;3.53;3.10;;;12.90;99.90;;;;;;5083317;28;20044;-57
2023/08/29 01:10:54;;;;;;;3.70;3.20;;;12.80;99.90;;;;;;5098112;27;20291;-57
2023/08/29 01:13:40;;;;;;;4.93;3.15;;;12.80;99.90;;;;;;5097244;27;20048;-53
2023/08/29 01:16:09;;;;;;;3.85;3.10;;;12.80;99.90;;;;;;5077054;27;20070;-56
2023/08/29 01:18:37;;;;;;;4.38;2.80;;;12.70;99.90;;;;;;5097935;28;20039;-54
2023/08/29 01:21:24;;;;;;;3.20;2.60;;;12.70;99.90;;;;;;5097916;27;20746;-56
2023/08/29 01:24:03;;;;;;;2.65;2.30;;;12.70;99.90;;;;;;5078226;28;20043;-55
2023/08/29 01:26:29;;;;;;;3.38;2.70;;;12.70;99.90;;;;;;5092918;28;20044;-57
2023/08/29 01:28:56;;;;;;;3.70;2.88;;;12.60;99.90;;;;;;5093938;28;20546;-57
2023/08/29 01:31:23;;;;;;;4.13;3.13;;;12.60;99.90;;;;;;5075276;28;20529;-57
2023/08/29 01:33:49;;;;;;;4.43;2.92;;;12.50;99.90;;;;;;5094013;27;20043;-55
2023/08/29 01:36:14;;;;;;;2.90;2.60;;;12.50;99.90;;;;;;5063292;28;20417;-54
2023/08/29 01:38:40;;;;;;;3.42;2.80;;;12.50;99.90;;;;;;5077998;28;20047;-55
2023/08/29 01:41:06;;;;;;;4.75;3.33;;;12.50;99.90;;;;;;5092497;27;20126;-55
2023/08/29 01:43:31;;;;;;;4.38;3.30;;;12.50;99.90;;;;;;5084878;27;20066;-57
2023/08/29 01:45:57;;;;;;;4.93;3.40;;;12.40;99.90;;;;;;5083094;27;20067;-55
2023/08/29 01:48:23;;;;;;;4.50;3.17;;;12.40;99.90;;;;;;5061079;28;20058;-57
2023/08/29 01:50:48;;;;;;;3.30;3.00;;;12.40;99.90;;;;;;5095137;28;20039;-56
2023/08/29 01:53:14;;;;;;;3.40;2.50;;;12.40;99.90;;;;;;5091638;27;20042;-55
2023/08/29 01:55:42;;;;;;;2.70;2.30;;;12.30;99.90;;;;;;5073803;28;20051;-56
2023/08/29 01:58:10;;;;;;;2.63;2.17;;;12.30;99.90;;;;;;5095316;28;20043;-57
2023/08/29 02:00:36;;;;;;;3.22;2.58;;;12.20;99.90;;;;;;5075586;28;20397;-56
2023/08/29 02:03:02;;;;;;;4.13;2.40;;;12.20;99.90;;;;;;5077191;28;20066;-56
2023/08/29 02:05:28;;;;;;;4.03;2.95;;;12.20;99.90;;;;;;5094169;28;20043;-57
2023/08/29 02:07:53;;;;;;;4.13;2.70;;;12.20;99.90;;;;;;5062709;28;20065;-56
2023/08/29 02:10:19;;;;;;;5.38;3.20;;;12.20;99.90;;;;;;5094968;28;20050;-56
2023/08/29 02:12:45;;;;;;;4.65;3.78;;;12.20;99.90;;;;;;5075244;28;20040;-55
2023/08/29 02:15:12;;;;;;;4.32;3.30;;;12.20;99.90;;;;;;5095509;27;21094;-57
2023/08/29 02:17:37;;;;;;;4.25;3.40;;;12.10;99.90;;;;;;5094060;28;20035;-57
2023/08/29 02:20:07;;;;;;;5.35;3.40;;;12.10;99.90;;;;;;5077282;28;20066;-53
2023/08/29 02:22:33;;;;;;;4.35;3.30;;;12.10;99.90;;;;;;5090707;28;20051;-57
2023/08/29 02:25:00;;;;;;;4.97;2.78;;;12.10;99.90;;;;;;5092887;28;20044;-53
2023/08/29 02:27:26;;;;;;;2.90;2.50;;;12.10;99.90;;;;;;5087605;28;20052;-57
2023/08/29 02:29:52;;;;;;;4.75;2.78;;;12.10;99.90;;;;;;5096014;27;20043;-54
2023/08/29 02:32:18;;;;;;;5.38;2.60;;;12.00;99.90;;;;;;5095339;28;20121;-57
2023/08/29 02:34:44;;;;;;;2.58;2.35;;;12.00;99.90;;;;;;5096450;28;20127;-56
2023/08/29 02:37:10;;;;;;;5.22;3.60;;;12.00;99.90;;;;;;5094072;28;20056;-55
2023/08/29 02:39:35;;;;;;;4.55;3.85;;;12.00;99.90;;;;;;5083450;27;20481;-55
2023/08/29 02:42:01;;;;;;;4.82;3.45;;;12.00;99.90;;;;;;5096280;27;20128;-56
2023/08/29 02:44:27;;;;;;;4.60;3.35;;;12.00;99.90;;;;;;5078031;28;20047;-56
2023/08/29 02:46:52;;;;;;;5.40;4.18;;;11.90;99.90;;;;;;5094241;27;20032;-56
2023/08/29 02:49:18;;;;;;;7.80;4.15;;;11.90;99.90;;;;;;5051165;28;21455;-51
2023/08/29 02:51:44;;;;;;;6.53;3.60;;;11.90;99.90;;;;;;5094837;28;20056;-57
2023/08/29 02:54:09;;;;;;;14.25;4.50;;;11.90;99.90;;;;;;5093873;27;20040;-55
2023/08/29 02:56:35;;;;;;;5.88;3.97;;;12.00;99.90;;;;;;5091865;27;20036;-57
2023/08/29 02:59:01;;;;;;;5.40;4.30;;;11.90;99.90;;;;;;5092844;28;20043;-56
2023/08/29 03:01:27;;;;;;;5.10;4.22;;;11.90;99.90;;;;;;5090643;27;20368;-56
2023/08/29 03:03:53;;;;;;;5.25;3.60;;;11.90;99.90;;;;;;5091691;28;20185;-54
2023/08/29 03:06:19;;;;;;;3.00;2.70;;;11.90;99.90;;;;;;5093218;27;20067;-57
2023/08/29 03:08:44;;;;;;;3.55;2.88;;;11.90;99.90;;;;;;5094413;28;20043;-55
2023/08/29 03:11:10;;;;;;;3.92;3.30;;;11.90;99.90;;;;;;5096130;27;20079;-54
2023/08/29 03:13:36;;;;;;;3.75;3.40;;;11.90;99.90;;;;;;5082891;28;20096;-55
2023/08/29 03:16:13;;;;;;;3.45;3.08;;;11.90;99.90;;;;;;5094209;27;20042;-57
2023/08/29 03:18:39;;;;;;;3.45;2.40;;;11.80;99.90;;;;;;5095398;28;20441;-56
2023/08/29 03:21:08;;;;;;;2.80;2.10;;;11.80;99.90;;;;;;5090652;27;20047;-56
2023/08/29 03:23:35;;;;;;;2.85;2.20;;;11.80;99.90;;;;;;5092487;27;20047;-55
2023/08/29 03:26:08;;;;;;;3.70;3.40;;;11.80;99.90;;;;;;5096715;27;20114;-57
2023/08/29 03:28:35;;;;;;;4.97;2.90;;;11.80;99.90;;;;;;5091392;27;20176;-57
2023/08/29 03:31:15;;;;;;;3.40;2.30;;;11.80;99.90;;;;;;5092315;28;20050;-55
2023/08/29 03:33:42;;;;;;;3.05;1.73;;;11.80;99.90;;;;;;5094734;27;20044;-56
2023/08/29 03:36:09;;;;;;;3.40;1.80;;;11.70;99.90;;;;;;5093559;27;20050;-56
2023/08/29 03:38:36;;;;;;;2.28;1.80;;;11.70;99.90;;;;;;5080334;28;20132;-55
2023/08/29 03:41:03;;;;;;;4.68;2.47;;;11.70;99.90;;;;;;5076306;28;20039;-56
2023/08/29 03:43:32;;;;;;;4.45;3.60;;;11.60;99.90;;;;;;5091457;27;20059;-57
2023/08/29 03:46:00;;;;;;;3.72;3.33;;;11.60;99.90;;;;;;5092211;27;20107;-56
2023/08/29 03:48:26;;;;;;;3.35;3.00;;;11.60;99.90;;;;;;5091161;28;20474;-56
2023/08/29 03:50:52;;;;;;;3.38;3.08;;;11.60;99.90;;;;;;5080308;27;20039;-57
2023/08/29 03:53:18;;;;;;;2.80;2.50;;;11.60;99.90;;;;;;5091426;27;21925;-54
2023/08/29 03:55:43;;;;;;;4.30;2.40;;;11.60;99.90;;;;;;5091888;27;20044;-58
2023/08/29 03:58:09;;;;;;;3.80;3.30;;;11.60;99.90;;;;;;5061615;28;20039;-57
2023/08/29 04:00:35;;;;;;;4.40;3.35;;;11.60;99.90;;;;;;5092440;27;20073;-55
2023/08/29 04:03:01;;;;;;;4.30;3.50;;;11.50;99.90;;;;;;5096749;27;20546;-55
2023/08/29 04:05:27;;;;;;;4.63;3.67;;;11.50;99.90;;;;;;5074016;28;20521;-56
2023/08/29 04:07:54;;;;;;;4.47;3.50;;;11.50;99.90;;;;;;5095965;28;20175;-54
2023/08/29 04:10:19;;;;;;;5.97;3.38;;;11.50;99.90;;;;;;5091472;27;20048;-56
2023/08/29 04:12:45;;;;;;;4.07;3.67;;;11.50;99.90;;;;;;5092746;27;20042;-57
2023/08/29 04:15:12;;;;;;;3.85;2.90;;;11.50;99.90;;;;;;5094662;27;20036;-55
2023/08/29 04:17:38;;;;;;;6.07;2.85;;;11.50;99.90;;;;;;5097142;27;20514;-56
2023/08/29 04:20:09;;;;;;;3.15;2.35;;;11.50;99.90;;;;;;5095518;28;20043;-57
2023/08/29 04:22:35;;;;;;;2.67;2.08;;;11.50;99.90;;;;;;5093967;27;20710;-56
2023/08/29 04:25:06;;;;;;;2.28;2.03;;;11.50;99.90;;;;;;5090963;27;20055;-56
2023/08/29 04:27:32;;;;;;;1.92;1.83;;;11.50;99.90;;;;;;5096764;27;20051;-55
2023/08/29 04:29:58;;;;;;;2.97;2.00;;;11.40;99.90;;;;;;5096646;28;20039;-57
2023/08/29 04:32:24;;;;;;;4.75;2.38;;;11.40;99.90;;;;;;5095814;28;20051;-56
2023/08/29 04:34:49;;;;;;;2.42;2.22;;;11.30;99.90;;;;;;5082405;28;20040;-56
2023/08/29 04:37:16;;;;;;;4.88;2.50;;;11.30;99.90;;;;;;5094177;27;20096;-57
2023/08/29 04:39:42;;;;;;;3.53;2.60;;;11.30;99.90;;;;;;5094487;28;20131;-57
2023/08/29 04:42:08;;;;;;;4.13;2.97;;;11.30;99.90;;;;;;5092955;27;20063;-57
2023/08/29 04:44:35;;;;;;;3.55;2.80;;;11.30;99.90;;;;;;5093522;27;20122;-55
2023/08/29 04:47:01;;;;;;;3.35;2.92;;;11.30;99.90;;;;;;5091431;27;20036;-56
2023/08/29 04:49:26;;;;;;;5.93;3.30;;;11.30;99.90;;;;;;5075875;27;20518;-56
2023/08/29 04:51:52;;;;;;;4.07;3.38;;;11.20;99.90;;;;;;5066302;28;20035;-56
2023/08/29 04:54:18;;;;;;;3.53;2.83;;;11.20;99.90;;;;;;5067058;28;20059;-54
2023/08/29 04:56:43;;;;;;;3.85;3.15;;;11.20;99.90;;;;;;5096792;28;20044;-56
2023/08/29 04:59:09;;;;;;;3.92;3.53;;;11.20;99.90;;;;;;5095107;27;20048;-56
2023/08/29 05:01:36;;;;;;;4.78;3.85;;;11.20;99.90;;;;;;5090625;27;20044;-56
2023/08/29 05:04:01;;;;;;;3.80;3.15;;;11.30;99.90;;;;;;5094693;28;20516;-57
2023/08/29 05:06:27;;;;;;;4.18;2.92;;;11.30;99.90;;;;;;5094808;27;20087;-55
2023/08/29 05:08:53;;;;;;;3.95;2.90;;;11.30;99.90;;;;;;5074872;27;20410;-57
2023/08/29 05:11:18;;;;;;;3.72;2.47;;;11.30;99.90;;;;;;5077048;28;20059;-56
2023/08/29 05:13:44;;;;;;;2.95;2.17;;;11.30;99.90;;;;;;5095232;28;20122;-56
2023/08/29 05:16:10;;;;;;;3.30;2.38;;;11.30;99.90;;;;;;5092166;27;20062;-54
2023/08/29 05:18:35;;;;;;;2.22;2.03;;;11.30;99.90;;;;;;5095504;28;20039;-55
2023/08/29 05:21:01;;;;;;;3.30;3.00;;;11.20;99.90;;;;;;5092461;27;20044;-54
2023/08/29 05:23:27;;;;;;;2.65;2.40;;;11.20;99.90;;;;;;5090149;27;20836;-56
2023/08/29 05:25:52;;;;;;;3.03;2.38;;;11.30;99.90;;;;;;5071421;28;20047;-57
2023/08/29 05:28:18;;;;;;;3.88;2.10;;;11.20;99.90;;;;;;5089554;27;20059;-55
2023/08/29 05:30:44;;;;;;;2.58;2.20;;;11.20;99.90;;;;;;5091972;27;20101;-57
2023/08/29 05:33:11;;;;;;;4.32;3.22;;;11.20;99.90;;;;;;5087357;27;20120;-53
2023/08/29 05:35:36;;;;;;;5.43;3.10;;;11.20;99.90;;;;;;5090930;28;20047;-57
2023/08/29 05:38:02;;;;;;;4.07;3.00;;;11.20;99.90;;;;;;5054654;28;20039;-55
2023/08/29 05:40:28;;;;;;;3.97;3.35;;;11.20;99.90;;;;;;5073036;28;20047;-55
2023/08/29 05:42:53;;;;;;;5.85;4.20;;;11.30;99.90;;;;;;5076269;28;20035;-54
2023/08/29 05:45:19;;;;;;;6.15;4.57;;;11.30;99.90;;;;;;5088937;28;20039;-54
2023/08/29 05:47:45;;;;;;;7.18;4.32;;;11.40;99.90;;;;;;5092253;28;20679;-57
2023/08/29 05:50:10;;;;;;;6.15;4.43;;;11.50;99.90;;;;;;5088925;27;20062;-56
2023/08/29 05:52:36;;;;;;;5.47;4.25;;;11.50;99.90;;;;;;5091068;27;20035;-57
2023/08/29 05:55:02;;;;;;;5.13;3.90;;;11.60;99.90;;;;;;5091639;27;20054;-54
2023/08/29 05:57:28;;;;;;;4.70;3.90;;;11.70;99.90;;;;;;5070643;27;20048;-56
2023/08/29 05:59:54;;;;;;;4.57;3.38;;;11.70;99.90;;;;;;5093613;28;20059;-56
2023/08/29 06:02:20;;;;;;;5.35;3.20;;;11.70;99.90;;;;;;5092320;28;20134;-56
2023/08/29 06:04:46;;;;;;;4.88;3.67;;;11.80;99.90;;;;;;5083544;28;20679;-57
2023/08/29 06:07:12;;;;;;;6.15;3.92;;;11.80;99.90;;;;;;5070538;28;20052;-57
2023/08/29 06:09:38;;;;;;;5.88;4.38;;;11.90;99.90;;;;;;5089758;27;20615;-57
2023/08/29 06:12:06;;;;;;;6.07;4.30;;;11.90;99.90;;;;;;5088292;28;20047;-56
2023/08/29 06:14:32;;;;;;;4.90;4.40;;;12.00;99.90;;;;;;5093817;28;20035;-56
2023/08/29 06:16:57;;;;;;;7.60;4.57;;;12.10;99.90;;;;;;5089497;28;20062;-56
2023/08/29 06:19:23;;;;;;;6.35;4.15;;;12.10;99.90;;;;;;5093351;28;20264;-57
2023/08/29 06:21:49;;;;;;;5.78;4.65;;;12.20;99.90;;;;;;5094924;27;20078;-56
2023/08/29 06:24:14;;;;;;;7.18;4.97;;;12.20;99.90;;;;;;5093964;28;20044;-56
2023/08/29 06:26:41;;;;;;;5.13;4.32;;;12.30;99.90;;;;;;5062617;28;20075;-55
2023/08/29 06:29:07;;;;;;;4.35;3.90;;;12.40;99.90;;;;;;5090375;27;20541;-57
2023/08/29 06:31:32;;;;;;;5.93;4.47;;;12.50;99.90;;;;;;5092331;28;20039;-56
2023/08/29 06:33:59;;;;;;;5.80;4.30;;;12.60;99.90;;;;;;5095264;28;20058;-57
2023/08/29 06:36:26;;;;;;;7.72;4.40;;;12.70;99.90;;;;;;5079414;28;20059;-57
2023/08/29 06:38:53;;;;;;;8.05;4.50;;;12.80;99.90;;;;;;5090980;28;20044;-57
2023/08/29 06:41:19;;;;;;;5.85;4.20;;;12.90;99.90;;;;;;5093594;28;20457;-55
2023/08/29 06:43:46;;;;;;;5.63;4.10;;;13.00;99.90;;;;;;5091150;28;20035;-58
2023/08/29 06:46:13;;;;;;;5.63;3.95;;;13.10;99.90;;;;;;5090652;28;20044;-56
2023/08/29 06:48:40;;;;;;;4.82;3.80;;;13.40;99.90;;;;;;5074694;28;20039;-57
2023/08/29 06:51:07;;;;;;;4.95;3.90;;;13.40;99.90;;;;;;5095936;28;20047;-54
2023/08/29 06:53:33;;;;;;;4.28;3.88;;;13.50;99.90;;;;;;5081925;28;20043;-56
2023/08/29 06:55:59;;;;;;;6.63;4.03;;;13.60;99.90;;;;;;5094022;28;20054;-56
2023/08/29 06:58:25;;;;;;;5.97;3.70;;;13.70;99.90;;;;;;5065285;28;20199;-57
2023/08/29 07:00:52;;;;;;;4.97;3.60;;;13.80;99.90;;;;;;5093802;28;20044;-57
2023/08/29 07:03:18;;;;;;;4.97;3.45;;;13.90;99.90;;;;;;5077951;28;20363;-55
2023/08/29 07:05:44;;;;;;;5.68;3.63;;;14.00;99.90;;;;;;5085134;28;20063;-58
2023/08/29 07:08:09;;;;;;;5.03;3.05;;;14.10;99.90;;;;;;5093384;28;20288;-57
2023/08/29 07:10:35;;;;;;;4.47;3.30;;;14.20;99.90;;;;;;5093202;28;20085;-56
2023/08/29 07:13:01;;;;;;;3.60;3.10;;;14.40;99.90;;;;;;5082979;28;20160;-57
2023/08/29 07:15:27;;;;;;;3.33;2.90;;;14.50;99.90;;;;;;5094987;28;20863;-58
2023/08/29 07:17:53;;;;;;;4.43;3.28;;;14.60;99.90;;;;;;5095932;28;20469;-55
2023/08/29 07:20:19;;;;;;;6.00;3.70;;;14.70;99.90;;;;;;5093512;28;20071;-57
2023/08/29 07:22:45;;;;;;;5.38;3.42;;;14.90;99.90;;;;;;5095089;28;20090;-57
2023/08/29 07:25:11;;;;;;;6.40;3.88;;;15.00;99.90;;;;;;5100135;27;20099;-55
2023/08/29 07:27:37;;;;;;;2.72;2.53;;;15.10;99.90;;;;;;5098460;27;20040;-57
2023/08/29 07:30:04;;;;;;;5.05;2.95;;;15.20;99.90;;;;;;5098279;28;20043;-55
2023/08/29 07:32:30;;;;;;;5.40;3.03;;;15.30;99.90;;;;;;5096931;27;21246;-57
2023/08/29 07:34:58;;;;;;;4.97;3.13;;;15.40;99.90;;;;;;5099550;27;20051;-56
2023/08/29 07:37:24;;;;;;;3.88;3.03;;;15.50;99.90;;;;;;5102138;27;20151;-55
2023/08/29 07:39:50;;;;;;;8.40;3.22;;;15.60;99.90;;;;;;5069470;28;20028;-57
2023/08/29 07:42:16;;;;;;;4.35;2.80;;;15.70;99.90;;;;;;5103010;28;20136;-55
2023/08/29 07:44:43;;;;;;;4.20;2.92;;;15.80;99.90;;;;;;5097768;28;20036;-57
2023/08/29 07:47:09;;;;;;;5.43;2.90;;;15.90;99.90;;;;;;5098596;27;20032;-57
2023/08/29 07:49:34;;;;;;;4.30;2.80;;;16.00;99.90;;;;;;5066243;28;20048;-55
2023/08/29 07:52:01;;;;;;;3.58;2.72;;;16.10;99.90;;;;;;5078569;28;20090;-56
2023/08/29 07:54:26;;;;;;;4.13;2.80;;;16.10;99.90;;;;;;5082511;28;20157;-55
2023/08/29 07:56:53;;;;;;;3.08;2.75;;;16.30;99.90;;;;;;5100464;27;20122;-56
2023/08/29 07:59:19;;;;;;;4.05;2.55;;;16.40;99.90;;;;;;5097320;27;20036;-52
2023/08/29 08:01:45;;;;;;;5.80;3.17;;;16.40;99.90;;;;;;5095181;27;20043;-54
2023/08/29 08:04:11;;;;;;;4.75;2.85;;;16.50;99.90;;;;;;5101440;27;20492;-56
2023/08/29 08:06:37;;;;;;;3.42;2.50;;;16.70;99.90;;;;;;5092514;27;20392;-56
2023/08/29 08:09:04;;;;;;;5.22;2.65;;;16.80;99.90;;;;;;5085777;28;20040;-57
2023/08/29 08:11:30;;;;;;;4.68;2.50;;;16.80;99.90;;;;;;5094242;28;20043;-56
2023/08/29 08:13:56;;;;;;;3.50;2.55;;;17.00;99.90;;;;;;5083620;27;20043;-56
2023/08/29 08:16:22;;;;;;;3.13;2.55;;;17.10;99.90;;;;;;5094404;28;20126;-52
2023/08/29 08:18:47;;;;;;;5.10;2.60;;;17.20;99.90;;;;;;5099154;27;20040;-55
2023/08/29 08:21:13;;;;;;;4.80;2.55;;;17.40;99.90;;;;;;5097489;28;20483;-58
2023/08/29 08:23:39;;;;;;;3.38;2.63;;;17.50;99.90;;;;;;5092604;27;20035;-56
2023/08/29 08:26:05;;;;;;;3.45;2.60;;;17.70;99.90;;;;;;5096149;27;20062;-56
2023/08/29 08:28:31;;;;;;;3.05;2.30;;;17.90;99.90;;;;;;5082850;28;20111;-58
2023/08/29 08:30:57;;;;;;;3.78;2.38;;;18.10;99.90;;;;;;5095974;27;20134;-56
2023/08/29 08:33:24;;;;;;;2.33;2.05;;;18.20;99.90;;;;;;5100278;28;20036;-54
2023/08/29 08:35:50;;;;;;;5.55;2.55;;;18.30;99.90;;;;;;5094425;27;20663;-56
2023/08/29 08:38:16;;;;;;;5.07;2.50;;;18.40;99.90;;;;;;5097912;28;20168;-55
2023/08/29 08:40:42;;;;;;;7.32;2.33;;;18.40;99.90;;;;;;5093250;27;20052;-57
2023/08/29 08:43:10;;;;;;;2.83;2.50;;;18.50;99.90;;;;;;5102007;27;20043;-55
2023/08/29 08:45:39;;;;;;;2.63;1.83;;;18.60;99.90;;;;;;5095255;27;20048;-58
2023/08/29 08:48:05;;;;;;;4.43;2.10;;;18.60;99.90;;;;;;5099000;27;20115;-57
2023/08/29 08:50:31;;;;;;;3.42;2.20;;;18.60;99.90;;;;;;5097694;27;20528;-55
2023/08/29 08:52:59;;;;;;;3.20;2.10;;;18.70;99.90;;;;;;5096471;28;20051;-58
2023/08/29 08:55:26;;;;;;;2.78;2.10;;;18.70;99.90;;;;;;5099321;28;20043;-57
2023/08/29 08:57:53;;;;;;;3.25;2.10;;;18.80;99.90;;;;;;5100251;27;20046;-57
2023/08/29 09:00:20;;;;;;;2.17;1.92;;;18.80;99.90;;;;;;5096964;27;20465;-57
2023/08/29 09:02:45;;;;;;;2.85;1.90;;;18.80;99.90;;;;;;5094747;27;20047;-57
2023/08/29 09:05:11;;;;;;;3.85;2.10;;;18.90;99.90;;;;;;5084442;27;20024;-57
2023/08/29 09:07:40;;;;;;;3.72;2.22;;;19.00;99.90;;;;;;5098725;28;20138;-56
2023/08/29 09:10:15;;;;;;;5.90;2.30;;;19.00;99.90;;;;;;5100312;27;20123;-57
2023/08/29 09:12:55;;;;;;;3.58;2.17;;;19.10;99.90;;;;;;5087259;28;20224;-53
2023/08/29 09:15:22;;;;;;;3.67;2.10;;;19.10;99.90;;;;;;5075607;28;20547;-55
2023/08/29 09:17:53;;;;;;;3.58;2.22;;;19.20;99.90;;;;;;5080131;28;20799;-57
2023/08/29 09:20:20;;;;;;;3.03;2.40;;;19.20;99.90;;;;;;5094905;27;20051;-56
2023/08/29 09:22:47;;;;;;;2.75;2.10;;;19.20;99.90;;;;;;5072635;28;20367;-57
2023/08/29 09:25:13;;;;;;;3.50;2.30;;;19.30;99.90;;;;;;5098375;27;20035;-58
2023/08/29 09:27:40;;;;;;;2.97;2.10;;;19.40;99.90;;;;;;5079510;28;20035;-56
2023/08/29 09:30:14;;;;;;;2.15;1.95;;;19.50;99.90;;;;;;5095459;28;20047;-59
2023/08/29 09:32:42;;;;;;;2.80;2.20;;;19.50;99.90;;;;;;5094414;28;20039;-55
2023/08/29 09:35:11;;;;;;;3.22;2.00;;;19.60;99.90;;;;;;5090671;27;20070;-54
2023/08/29 09:37:42;;;;;;;4.10;2.13;;;19.70;99.90;;;;;;5091473;28;20042;-58
2023/08/29 09:40:14;;;;;;;4.35;2.63;;;19.80;99.90;;;;;;5094489;28;20672;-58
2023/08/29 09:42:40;;;;;;;;;;;19.80;99.90;;;;;;5094317;28;20040;-58
2023/08/29 09:45:09;;;;;;;3.60;2.42;;;19.90;99.90;;;;;;5094777;28;19924;-58
2023/08/29 09:47:35;;;;;;;4.97;3.22;;;19.90;99.90;;;;;;5092656;28;20103;-58
2023/08/29 09:50:01;;;;;;;4.68;2.88;;;19.90;99.90;;;;;;5094072;27;20172;-58
2023/08/29 09:52:28;;;;;;;7.47;3.15;;;20.00;99.90;;;;;;5093386;28;20035;-55
2023/08/29 09:54:56;;;;;;;4.15;2.45;;;20.00;99.90;;;;;;5080848;28;20048;-57
2023/08/29 09:57:24;;;;;;;4.68;2.63;;;20.00;99.90;;;;;;5090927;28;20237;-56
2023/08/29 09:59:52;;;;;;;3.03;2.00;;;20.10;99.90;;;;;;5091329;27;20040;-55
2023/08/29 10:02:20;;;;;;;3.90;1.90;;;20.10;99.90;;;;;;5091333;28;20044;-58
2023/08/29 10:04:52;;;;;;;3.53;2.22;;;20.10;99.90;;;;;;5089033;28;20501;-57
2023/08/29 10:07:25;;;;;;;;;;;20.30;99.90;;;;;;5092671;28;20146;-57
2023/08/29 10:09:51;;;;;;;;;;;20.30;99.90;;;;;;5094369;28;20505;-56
2023/08/29 10:12:18;;;;;;;4.97;1.80;;;20.40;99.90;;;;;;5072068;28;19966;-58
2023/08/29 10:14:45;;;;;;;3.22;1.98;;;20.40;99.90;;;;;;5088960;28;20039;-58
2023/08/29 10:17:13;;;;;;;3.72;1.75;;;20.50;99.90;;;;;;5098390;27;20035;-54
2023/08/29 10:19:39;;;;;;;2.08;1.80;;;20.60;99.90;;;;;;5066517;28;20350;-58
2023/08/29 10:22:08;;;;;;;3.30;1.90;;;20.70;99.90;;;;;;5094636;28;20096;-58
2023/08/29 10:24:36;;;;;;;2.30;1.80;;;20.80;99.90;;;;;;5100969;28;20040;-56
2023/08/29 10:27:03;;;;;;;3.78;1.88;;;21.00;99.90;;;;;;5080389;28;20450;-58
2023/08/29 10:29:30;;;;;;;3.50;1.88;;;21.10;99.90;;;;;;5095344;28;20088;-58
2023/08/29 10:31:57;;;;;;;3.45;2.20;;;21.20;99.90;;;;;;5099787;28;20168;-57
2023/08/29 10:34:26;;;;;;;3.25;1.90;;;21.30;99.90;;;;;;5095330;27;20616;-58
2023/08/29 10:36:52;;;;;;;2.92;1.98;;;21.40;99.90;;;;;;5091802;28;20040;-57
2023/08/29 10:39:19;;;;;;;2.33;1.90;;;21.40;99.90;;;;;;5058843;28;20058;-56
2023/08/29 10:41:52;;;;;;;3.72;1.90;;;21.60;99.90;;;;;;5086397;28;20047;-58
2023/08/29 10:44:40;;;;;;;3.15;2.00;;;21.60;99.90;;;;;;5088409;28;20096;-57
2023/08/29 10:47:16;;;;;;;2.20;1.58;;;21.70;99.90;;;;;;5090430;28;20040;-56
2023/08/29 10:49:46;;;;;;;1.83;1.60;;;21.90;99.90;;;;;;5090487;28;20047;-57
2023/08/29 10:52:11;;;;;;;3.05;1.77;;;22.10;99.90;;;;;;5090120;28;20048;-58
2023/08/29 10:54:37;;;;;;;4.20;1.70;;;22.20;99.90;;;;;;5091996;28;20342;-57
2023/08/29 10:57:29;;;;;;;2.95;2.15;;;22.40;99.90;;;;;;5095367;27;20867;-57
2023/08/29 10:59:56;;;;;;;2.25;1.75;;;22.50;99.90;;;;;;5073209;28;20067;-56
2023/08/29 11:02:29;;;;;;;3.38;2.30;;;22.50;99.90;;;;;;5094596;27;20807;-57
2023/08/29 11:05:04;;;;;;;2.70;1.65;;;22.50;99.90;;;;;;5088409;28;20516;-57
2023/08/29 11:07:31;;;;;;;4.38;2.58;;;22.50;99.90;;;;;;5092708;28;20052;-52
2023/08/29 11:10:22;;;;;;;7.40;2.70;;;22.50;99.90;;;;;;5098213;28;20438;-58
2023/08/29 11:13:09;;;;;;;3.88;3.30;;;22.50;99.90;;;;;;5100562;28;20060;-54
2023/08/29 11:15:49;;;;;;;4.72;3.42;;;22.60;99.90;;;;;;5098233;27;20040;-57
2023/08/29 11:18:24;;;;;;;4.43;3.38;;;22.60;99.50;;;;;;5098968;27;20051;-56
2023/08/29 11:20:51;;;;;;;3.83;3.40;;;22.60;99.80;;;;;;5097336;27;20074;-56
2023/08/29 11:23:19;;;;;;;3.78;3.47;;;22.60;99.20;;;;;;5090598;27;20048;-57
2023/08/29 11:25:50;;;;;;;4.78;3.70;;;22.60;99.20;;;;;;5094925;27;20517;-54
2023/08/29 11:28:16;;;;;;;8.77;3.10;;;22.60;98.60;;;;;;5099209;28;20099;-55
2023/08/29 11:30:46;;;;;;;3.55;3.10;;;22.70;98.60;;;;;;5094505;27;20077;-58
2023/08/29 11:33:13;;;;;;;3.55;3.00;;;22.70;98.40;;;;;;5079693;28;20043;-58
2023/08/29 11:35:38;;;;;;;3.28;2.97;;;22.80;98.50;;;;;;5087085;27;20071;-57
2023/08/29 11:38:07;;;;;;;3.85;2.50;;;22.80;98.40;;;;;;5094955;28;20118;-56
2023/08/29 11:40:34;;;;;;;3.38;2.80;;;22.80;97.90;;;;;;5086076;28;20040;-59
2023/08/29 11:43:00;;;;;;;3.28;2.53;;;22.90;97.20;;;;;;5095104;27;20100;-56
2023/08/29 11:45:29;;;;;;;3.05;2.10;;;23.00;97.00;;;;;;5095898;27;20569;-57
2023/08/29 11:47:56;;;;;;;2.47;2.00;;;23.00;97.00;;;;;;5094564;28;20051;-57
2023/08/29 11:50:22;;;;;;;3.15;2.00;;;23.00;97.10;;;;;;5085474;27;20042;-56
2023/08/29 11:52:48;;;;;;;2.80;2.13;;;22.90;96.80;;;;;;5095913;27;20505;-58
2023/08/29 11:55:15;;;;;;;2.70;1.92;;;22.80;96.60;;;;;;5091426;27;20040;-57
2023/08/29 11:57:45;;;;;;;3.08;1.90;;;22.70;96.30;;;;;;5100282;27;20081;-55
2023/08/29 12:00:13;;;;;;;2.97;2.10;;;22.60;96.50;;;;;;5099775;27;20036;-58
2023/08/29 12:02:39;;;;;;;3.17;1.90;;;22.60;96.70;;;;;;5099415;27;20070;-56
2023/08/29 12:05:10;;;;;;;2.85;1.92;;;22.50;96.50;;;;;;5085823;28;20320;-58
2023/08/29 12:07:36;;;;;;;2.22;1.80;;;22.40;95.90;;;;;;5086667;28;20075;-57
2023/08/29 12:10:09;;;;;;;2.85;2.15;;;22.30;95.90;;;;;;5101722;27;20044;-56
2023/08/29 12:12:36;;;;;;;3.00;1.83;;;22.20;96.00;;;;;;5103396;27;20363;-53
2023/08/29 12:15:10;;;;;;;3.90;1.85;;;22.20;96.00;;;;;;5098540;27;20466;-56
2023/08/29 12:17:43;;;;;;;3.78;1.75;;;22.10;96.10;;;;;;5101994;27;20048;-57
2023/08/29 12:20:12;;;;;;;2.70;1.95;;;22.10;96.50;;;;;;5097023;27;20047;-56
2023/08/29 12:22:39;;;;;;;2.33;1.73;;;22.20;96.50;;;;;;5097740;28;20044;-57
2023/08/29 12:25:05;;;;;;;3.53;2.10;;;22.30;96.50;;;;;;5084254;27;20063;-58
2023/08/29 12:27:31;;;;;;;3.65;2.13;;;22.40;96.50;;;;;;5101876;28;20036;-58
2023/08/29 12:29:57;;;;;;;2.45;2.05;;;22.50;96.00;;;;;;5098434;27;20046;-57
2023/08/29 12:32:29;;;;;;;3.72;2.05;;;22.60;95.50;;;;;;5091758;27;20078;-58
2023/08/29 12:34:58;;;;;;;2.20;2.00;;;22.60;95.40;;;;;;5094346;27;20035;-57
2023/08/29 12:37:25;;;;;;;4.82;2.08;;;22.60;95.00;;;;;;5100505;27;20039;-58
2023/08/29 12:39:51;;;;;;;3.60;2.00;;;22.60;94.90;;;;;;5102091;28;20118;-56
2023/08/29 12:42:17;;;;;;;3.42;1.70;;;22.60;94.50;;;;;;5098239;28;20040;-57
2023/08/29 12:44:44;;;;;;;1.83;1.70;;;22.70;94.90;;;;;;5100749;27;20478;-54
2023/08/29 12:47:09;;;;;;;2.40;1.90;;;22.80;94.70;;;;;;5099323;27;20028;-56